Time;durP1;ratioP1;P1;durP2;ratioP2;P2;SDS_P1;SDS_P2;PMS_P1;PMS_P2;Temp;Humidity;BMP_temperature;BMP_pressure;BME280_temperature;BME280_humidity;BME280_pressure;Samples;Min_cycle;Max_cycle;Signal;HPM_P1;HPM_P2
2021/07/21 00:01:43;;;;;;;9.07;7.20;;;15.40;99.90;;;;;;5084536;28;20174;-72
2021/07/21 00:04:09;;;;;;;9.10;7.33;;;15.30;99.90;;;;;;5083419;28;20549;-73
2021/07/21 00:06:34;;;;;;;9.30;7.87;;;15.00;99.90;;;;;;5079862;28;20432;-73
2021/07/21 00:09:00;;;;;;;8.00;7.20;;;15.00;99.90;;;;;;5084643;28;20197;-74
2021/07/21 00:14:18;;;;;;;10.03;7.30;;;14.70;99.90;;;;;;5087653;28;20212;-73
2021/07/21 00:16:51;;;;;;;10.30;8.00;;;14.60;99.90;;;;;;5083149;28;20435;-73
2021/07/21 00:22:02;;;;;;;9.53;8.73;;;14.60;99.90;;;;;;5087285;28;20500;-73
2021/07/21 00:24:27;;;;;;;8.67;7.77;;;14.40;99.90;;;;;;5085263;28;20476;-73
2021/07/21 00:26:53;;;;;;;10.43;6.60;;;14.70;99.90;;;;;;5075432;28;20534;-71
2021/07/21 00:29:18;;;;;;;9.30;7.83;;;14.60;99.90;;;;;;5082561;28;20181;-73
2021/07/21 00:31:44;;;;;;;9.00;7.07;;;14.50;99.90;;;;;;5084836;28;20574;-73
2021/07/21 00:34:10;;;;;;;12.73;8.10;;;14.40;99.90;;;;;;5087464;28;20235;-71
2021/07/21 00:36:36;;;;;;;9.70;8.70;;;14.60;99.90;;;;;;5085984;28;20549;-71
2021/07/21 00:39:01;;;;;;;9.73;7.13;;;14.70;99.90;;;;;;5084139;28;20486;-71
2021/07/21 00:41:27;;;;;;;8.67;7.40;;;14.50;99.90;;;;;;5076755;28;20181;-71
2021/07/21 00:43:52;;;;;;;10.63;7.00;;;14.60;99.90;;;;;;5087615;28;20195;-72
2021/07/21 00:46:18;;;;;;;10.83;7.20;;;14.40;99.90;;;;;;5086996;28;20181;-71
2021/07/21 00:48:43;;;;;;;9.40;7.97;;;14.70;99.90;;;;;;5079117;28;20182;-73
2021/07/21 00:51:09;;;;;;;8.87;7.53;;;14.80;99.90;;;;;;5084407;28;20264;-74
2021/07/21 00:53:35;;;;;;;11.23;6.80;;;14.50;99.90;;;;;;5081761;28;20181;-72
2021/07/21 00:56:00;;;;;;;8.60;6.63;;;14.70;99.90;;;;;;5081856;28;20722;-72
2021/07/21 00:58:26;;;;;;;7.77;6.90;;;14.80;99.90;;;;;;5085093;28;20204;-73
2021/07/21 01:00:55;;;;;;;9.30;6.07;;;14.80;99.90;;;;;;5083227;28;20664;-72
2021/07/21 01:03:21;;;;;;;7.57;6.77;;;14.50;99.90;;;;;;5076886;28;20185;-71
2021/07/21 01:05:46;;;;;;;12.43;7.30;;;14.50;99.90;;;;;;5074765;28;20498;-73
2021/07/21 01:08:13;;;;;;;8.23;6.90;;;14.40;99.90;;;;;;5072394;28;20746;-73
2021/07/21 01:10:59;;;;;;;11.17;7.00;;;14.50;99.90;;;;;;5072640;28;20255;-74
2021/07/21 01:13:29;;;;;;;11.97;7.30;;;14.50;99.90;;;;;;5071842;28;20448;-71
2021/07/21 01:16:17;;;;;;;8.80;6.80;;;14.20;99.90;;;;;;5085417;28;20454;-71
2021/07/21 01:18:53;;;;;;;9.10;7.47;;;14.30;99.90;;;;;;5077784;28;20464;-72
2021/07/21 01:21:28;;;;;;;8.07;6.83;;;14.20;99.90;;;;;;5081080;28;20447;-72
2021/07/21 01:24:24;;;;;;;9.63;7.30;;;14.00;99.90;;;;;;5074371;28;20521;-72
2021/07/21 01:27:16;;;;;;;7.97;7.17;;;14.30;99.90;;;;;;5084683;28;20481;-72
2021/07/21 01:29:45;;;;;;;12.10;7.97;;;14.10;99.90;;;;;;5083545;28;20430;-72
2021/07/21 01:32:15;;;;;;;12.90;7.60;;;14.20;99.90;;;;;;5081834;28;20431;-72
2021/07/21 01:34:41;;;;;;;9.20;7.73;;;14.10;99.90;;;;;;5075810;28;20534;-72
2021/07/21 01:37:07;;;;;;;7.83;7.00;;;14.10;99.90;;;;;;5086535;28;20953;-72
2021/07/21 01:39:37;;;;;;;8.90;7.33;;;13.90;99.90;;;;;;5076317;28;20483;-72
2021/07/21 01:42:06;;;;;;;9.60;6.90;;;14.10;99.90;;;;;;5083715;28;20451;-72
2021/07/21 01:44:36;;;;;;;8.00;6.70;;;14.10;99.90;;;;;;5075280;28;21106;-73
2021/07/21 01:47:03;;;;;;;9.00;7.60;;;13.90;99.90;;;;;;5071318;28;20463;-72
2021/07/21 01:49:35;;;;;;;9.23;6.20;;;13.60;99.90;;;;;;5078549;28;20428;-72
2021/07/21 01:52:10;;;;;;;10.10;8.20;;;13.80;99.90;;;;;;5081865;28;20431;-73
2021/07/21 01:54:38;;;;;;;9.37;7.30;;;13.60;99.90;;;;;;5073592;28;20439;-73
2021/07/21 01:57:04;;;;;;;10.20;7.60;;;13.70;99.90;;;;;;5077393;28;20442;-72
2021/07/21 01:59:30;;;;;;;8.27;7.40;;;13.40;99.90;;;;;;5085834;28;20490;-72
2021/07/21 02:01:59;;;;;;;11.70;7.40;;;13.50;99.90;;;;;;5075259;28;20420;-73
2021/07/21 02:04:25;;;;;;;9.67;7.07;;;13.60;99.90;;;;;;5082302;28;20504;-72
2021/07/21 02:06:52;;;;;;;8.03;7.23;;;13.30;99.90;;;;;;5084560;28;20897;-72
2021/07/21 02:09:17;;;;;;;10.37;8.07;;;13.40;99.90;;;;;;5069982;28;20972;-75
2021/07/21 02:11:43;;;;;;;10.30;8.00;;;13.20;99.90;;;;;;5076930;28;20443;-76
2021/07/21 02:14:11;;;;;;;9.23;7.00;;;13.50;99.90;;;;;;5080994;28;20192;-72
2021/07/21 02:16:38;;;;;;;9.33;7.50;;;13.30;99.90;;;;;;5072598;28;20279;-71
2021/07/21 02:19:06;;;;;;;9.37;8.00;;;13.40;99.90;;;;;;5080956;28;20478;-71
2021/07/21 02:21:36;;;;;;;12.63;7.50;;;13.60;99.90;;;;;;5078711;28;20595;-75
2021/07/21 02:24:02;;;;;;;8.50;6.77;;;13.60;99.90;;;;;;5074980;28;20447;-72
2021/07/21 02:26:28;;;;;;;10.40;7.60;;;13.60;99.90;;;;;;5083500;28;20973;-73
2021/07/21 02:28:53;;;;;;;8.30;7.37;;;13.40;99.90;;;;;;5077989;28;20470;-72
2021/07/21 02:31:27;;;;;;;10.80;8.37;;;13.40;99.90;;;;;;5083568;28;20277;-71
2021/07/21 02:33:58;;;;;;;8.83;7.73;;;13.20;99.90;;;;;;5080791;28;21198;-71
2021/07/21 02:36:24;;;;;;;9.90;7.37;;;13.20;99.90;;;;;;5074326;28;20443;-71
2021/07/21 02:38:51;;;;;;;10.07;7.40;;;13.10;99.90;;;;;;5081088;28;20479;-71
2021/07/21 02:41:17;;;;;;;10.77;7.67;;;13.20;99.90;;;;;;5082772;28;21070;-72
2021/07/21 02:43:43;;;;;;;9.07;7.47;;;13.10;99.90;;;;;;5081436;28;20530;-74
2021/07/21 02:46:09;;;;;;;9.40;7.33;;;13.20;99.90;;;;;;5078176;28;20226;-72
2021/07/21 02:48:34;;;;;;;10.30;7.63;;;13.00;99.90;;;;;;5081549;28;20630;-71
2021/07/21 02:51:15;;;;;;;10.50;7.57;;;13.30;99.90;;;;;;5072469;28;20177;-71
2021/07/21 02:53:48;;;;;;;11.40;7.67;;;13.30;99.90;;;;;;5080036;28;20487;-71
2021/07/21 02:56:15;;;;;;;8.47;7.10;;;13.40;99.90;;;;;;5066430;28;20457;-73
2021/07/21 02:58:48;;;;;;;8.40;7.20;;;13.30;99.90;;;;;;5080536;28;20474;-73
2021/07/21 03:01:17;;;;;;;10.87;8.20;;;13.10;99.90;;;;;;5081053;28;20443;-71
2021/07/21 03:03:44;;;;;;;8.93;7.40;;;13.20;99.90;;;;;;5083553;28;20843;-74
2021/07/21 03:06:10;;;;;;;10.17;7.00;;;13.10;99.90;;;;;;5082269;28;20523;-71
2021/07/21 03:08:37;;;;;;;9.63;7.57;;;13.10;99.90;;;;;;5076870;28;20993;-71
2021/07/21 03:11:04;;;;;;;8.83;7.27;;;13.10;99.90;;;;;;5080313;28;20851;-71
2021/07/21 03:13:40;;;;;;;8.47;7.53;;;13.10;99.90;;;;;;5082355;28;20431;-72
2021/07/21 03:16:06;;;;;;;9.27;6.90;;;13.00;99.90;;;;;;5069637;28;20435;-71
2021/07/21 03:18:32;;;;;;;8.63;7.17;;;13.00;99.90;;;;;;5075555;28;20433;-72
2021/07/21 03:20:58;;;;;;;10.47;7.40;;;13.00;99.90;;;;;;5071960;28;20431;-73
2021/07/21 03:23:26;;;;;;;13.30;7.57;;;12.90;99.90;;;;;;5079595;28;20439;-73
2021/07/21 03:25:55;;;;;;;11.90;8.43;;;12.70;99.90;;;;;;5080214;28;20996;-73
2021/07/21 03:28:24;;;;;;;8.50;6.77;;;13.10;99.90;;;;;;5079979;28;20433;-72
2021/07/21 03:30:50;;;;;;;10.60;7.13;;;12.80;99.90;;;;;;5089321;28;20462;-72
2021/07/21 03:33:18;;;;;;;12.73;8.77;;;12.70;99.90;;;;;;5088337;28;20430;-74
2021/07/21 03:35:45;;;;;;;10.27;7.60;;;12.90;99.90;;;;;;5070390;28;20428;-71
2021/07/21 03:38:11;;;;;;;9.90;7.40;;;12.90;99.90;;;;;;5088736;28;20717;-71
2021/07/21 03:40:39;;;;;;;9.17;7.70;;;12.90;99.90;;;;;;5086859;28;20490;-71
2021/07/21 03:43:05;;;;;;;10.33;8.40;;;12.70;99.90;;;;;;5086775;28;20427;-71
2021/07/21 03:45:33;;;;;;;7.70;6.97;;;12.70;99.90;;;;;;5084976;28;20504;-73
2021/07/21 03:48:00;;;;;;;9.07;6.70;;;12.70;99.90;;;;;;5088862;28;20435;-73
2021/07/21 03:50:26;;;;;;;11.03;7.50;;;12.60;99.90;;;;;;5089138;28;20707;-74
2021/07/21 03:52:53;;;;;;;10.03;7.60;;;12.60;99.90;;;;;;5086398;28;20507;-72
2021/07/21 03:55:23;;;;;;;11.60;8.40;;;13.00;99.90;;;;;;5083537;28;20435;-73
2021/07/21 03:57:49;;;;;;;10.47;7.73;;;12.50;99.90;;;;;;5075215;28;20443;-74
2021/07/21 04:00:17;;;;;;;8.70;7.37;;;12.50;99.90;;;;;;5079150;28;20528;-74
2021/07/21 04:02:45;;;;;;;10.53;8.00;;;12.60;99.90;;;;;;5086679;28;20435;-72
2021/07/21 04:05:14;;;;;;;10.23;7.27;;;12.80;99.90;;;;;;5081952;28;20427;-72
2021/07/21 04:07:41;;;;;;;7.90;7.10;;;12.60;99.90;;;;;;5083501;28;20488;-72
2021/07/21 04:10:08;;;;;;;10.30;7.70;;;12.80;99.90;;;;;;5086385;28;20482;-72
2021/07/21 04:12:35;;;;;;;10.57;8.37;;;12.70;99.90;;;;;;5082024;28;20779;-73
2021/07/21 04:15:01;;;;;;;8.90;7.30;;;12.70;99.90;;;;;;5079124;28;20785;-72
2021/07/21 04:17:30;;;;;;;9.90;7.33;;;12.50;99.90;;;;;;5087037;28;20439;-72
2021/07/21 04:19:57;;;;;;;7.00;6.27;;;12.60;99.90;;;;;;5073435;28;20567;-74
2021/07/21 04:22:23;;;;;;;9.23;7.87;;;12.60;99.90;;;;;;5083227;28;20431;-73
2021/07/21 04:24:50;;;;;;;10.20;7.80;;;12.70;99.90;;;;;;5076937;28;20547;-72
2021/07/21 04:27:16;;;;;;;9.30;7.53;;;12.70;99.90;;;;;;5079943;28;20957;-73
2021/07/21 04:29:46;;;;;;;11.63;8.00;;;12.70;99.90;;;;;;5080355;28;20847;-73
2021/07/21 04:32:13;;;;;;;9.87;8.60;;;12.80;99.90;;;;;;5087289;28;20511;-72
2021/07/21 04:34:40;;;;;;;8.30;7.00;;;12.90;99.90;;;;;;5084672;28;20940;-73
2021/07/21 04:37:06;;;;;;;9.10;7.70;;;13.10;99.90;;;;;;5082655;28;20519;-74
2021/07/21 04:39:33;;;;;;;10.90;8.37;;;12.80;99.90;;;;;;5083769;28;20500;-70
2021/07/21 04:41:58;;;;;;;9.23;8.30;;;12.80;99.90;;;;;;5078176;28;20441;-70
2021/07/21 04:44:24;;;;;;;8.83;7.43;;;13.00;99.90;;;;;;5071580;28;20442;-71
2021/07/21 04:46:53;;;;;;;10.70;7.90;;;13.10;99.90;;;;;;5086216;28;20212;-74
2021/07/21 04:49:21;;;;;;;11.17;7.80;;;12.90;99.90;;;;;;5087893;28;20181;-71
2021/07/21 04:51:48;;;;;;;10.40;8.07;;;13.00;99.90;;;;;;5083659;28;20874;-71
2021/07/21 04:54:15;;;;;;;10.00;8.17;;;12.90;99.90;;;;;;5083304;28;20483;-71
2021/07/21 04:56:40;;;;;;;10.20;7.50;;;13.00;99.90;;;;;;5080497;28;20841;-71
2021/07/21 04:59:06;;;;;;;11.57;9.57;;;13.00;99.90;;;;;;5084102;28;20571;-71
2021/07/21 05:01:33;;;;;;;10.60;8.30;;;13.40;99.90;;;;;;5078415;28;20189;-74
2021/07/21 05:03:59;;;;;;;9.27;7.03;;;13.30;99.90;;;;;;5082155;28;20180;-71
2021/07/21 05:06:24;;;;;;;10.20;8.60;;;13.20;99.90;;;;;;5083275;28;20644;-71
2021/07/21 05:08:51;;;;;;;8.27;7.00;;;13.30;99.90;;;;;;5073196;28;20769;-71
2021/07/21 05:11:17;;;;;;;10.37;8.40;;;13.70;99.90;;;;;;5073772;28;20277;-71
2021/07/21 05:13:42;;;;;;;9.77;8.60;;;13.70;99.90;;;;;;5074069;28;20432;-71
2021/07/21 05:16:08;;;;;;;9.40;7.60;;;13.60;99.90;;;;;;5077960;28;20984;-71
2021/07/21 05:18:38;;;;;;;10.97;8.80;;;13.70;99.90;;;;;;5082109;28;20262;-72
2021/07/21 05:21:05;;;;;;;9.70;8.20;;;13.70;99.90;;;;;;5082975;28;20432;-71
2021/07/21 05:23:30;;;;;;;10.43;8.67;;;14.30;99.90;;;;;;5081958;28;20852;-72
2021/07/21 05:25:57;;;;;;;10.10;7.93;;;14.20;99.90;;;;;;5085560;28;20434;-71
2021/07/21 05:28:23;;;;;;;10.27;8.20;;;14.90;99.90;;;;;;5081659;28;20667;-72
2021/07/21 05:30:49;;;;;;;12.20;8.27;;;15.40;99.90;;;;;;5078389;28;20466;-71
2021/07/21 05:33:14;;;;;;;9.10;8.20;;;16.40;99.90;;;;;;5079394;28;20958;-71
2021/07/21 05:35:41;;;;;;;8.73;7.07;;;17.30;99.90;;;;;;5077365;28;20261;-72
2021/07/21 05:38:07;;;;;;;8.27;7.40;;;17.80;99.90;;;;;;5073642;28;20279;-72
2021/07/21 05:40:32;;;;;;;8.53;7.63;;;18.00;99.90;;;;;;5086482;28;20583;-75
2021/07/21 05:42:58;;;;;;;13.90;9.77;;;18.80;99.90;;;;;;5086444;28;20180;-73
2021/07/21 05:45:24;;;;;;;11.20;10.03;;;19.00;99.90;;;;;;5083431;28;20184;-72
2021/07/21 05:47:49;;;;;;;9.90;9.00;;;18.80;99.20;;;;;;5075813;28;20192;-72
2021/07/21 05:50:15;;;;;;;9.70;8.70;;;19.60;98.90;;;;;;5071857;28;20196;-72
2021/07/21 05:52:40;;;;;;;12.47;10.20;;;19.80;95.30;;;;;;5081214;28;20203;-72
2021/07/21 05:55:07;;;;;;;9.77;8.60;;;20.30;91.90;;;;;;5086089;28;20549;-72
2021/07/21 05:57:33;;;;;;;10.60;9.50;;;20.40;89.50;;;;;;5075129;28;20197;-75
2021/07/21 05:59:58;;;;;;;13.40;9.00;;;20.90;85.40;;;;;;5082985;28;20484;-73
2021/07/21 06:02:24;;;;;;;9.57;8.57;;;21.40;83.30;;;;;;5082185;28;20437;-71
2021/07/21 06:04:50;;;;;;;10.37;9.27;;;21.60;80.10;;;;;;5081919;28;20466;-71
2021/07/21 06:07:15;;;;;;;11.03;8.83;;;22.00;76.30;;;;;;5078168;28;20184;-71
2021/07/21 06:09:41;;;;;;;9.70;8.80;;;22.00;73.90;;;;;;5084240;28;20842;-71
2021/07/21 06:12:07;;;;;;;10.00;9.00;;;22.40;71.30;;;;;;5073149;28;20188;-72
2021/07/21 06:14:33;;;;;;;13.50;9.80;;;22.80;70.60;;;;;;5082295;28;20190;-72
2021/07/21 06:16:59;;;;;;;9.90;8.20;;;22.60;67.50;;;;;;5081959;28;20432;-72
2021/07/21 06:19:25;;;;;;;9.67;8.70;;;22.60;67.60;;;;;;5082904;28;20798;-73
2021/07/21 06:21:50;;;;;;;9.10;8.10;;;22.50;66.80;;;;;;5074172;28;20432;-72
2021/07/21 06:24:17;;;;;;;11.83;9.50;;;22.90;67.00;;;;;;5078516;28;20813;-72
2021/07/21 06:26:44;;;;;;;11.50;9.33;;;23.50;64.90;;;;;;5072503;28;20290;-73
2021/07/21 06:29:09;;;;;;;10.10;7.80;;;24.00;63.30;;;;;;5074191;28;20444;-70
2021/07/21 06:31:35;;;;;;;10.87;9.77;;;24.20;60.80;;;;;;5079642;28;20441;-72
2021/07/21 06:34:00;;;;;;;11.03;9.93;;;23.60;57.60;;;;;;5082652;28;20197;-72
2021/07/21 06:36:26;;;;;;;10.57;9.60;;;23.60;58.50;;;;;;5085685;28;20180;-71
2021/07/21 06:38:53;;;;;;;13.70;10.50;;;23.80;58.80;;;;;;5076333;28;20189;-73
2021/07/21 06:41:18;;;;;;;10.50;8.93;;;23.60;59.40;;;;;;5074093;28;20187;-74
2021/07/21 06:43:44;;;;;;;12.00;9.57;;;23.50;60.30;;;;;;5072579;28;20447;-72
2021/07/21 06:46:10;;;;;;;9.80;8.70;;;23.30;59.30;;;;;;5083083;28;20192;-72
2021/07/21 06:48:36;;;;;;;12.63;9.10;;;23.50;60.30;;;;;;5083867;28;20198;-73
2021/07/21 06:51:01;;;;;;;11.23;9.97;;;22.80;60.00;;;;;;5081169;28;20456;-73
2021/07/21 06:53:30;;;;;;;12.57;9.83;;;22.60;61.70;;;;;;5084388;28;20205;-71
2021/07/21 06:55:57;;;;;;;13.17;10.47;;;22.10;64.00;;;;;;5080566;28;20194;-74
2021/07/21 06:58:23;;;;;;;10.33;9.33;;;22.20;64.20;;;;;;5086405;28;20475;-72
2021/07/21 07:00:48;;;;;;;11.93;10.33;;;22.30;63.20;;;;;;5082455;28;20479;-72
2021/07/21 07:03:14;;;;;;;13.63;10.37;;;22.60;61.80;;;;;;5075311;28;20284;-71
2021/07/21 07:05:39;;;;;;;10.63;9.53;;;22.60;63.30;;;;;;5081797;28;20190;-71
2021/07/21 07:08:05;;;;;;;10.97;9.17;;;22.70;61.80;;;;;;5075761;28;20686;-72
2021/07/21 07:10:30;;;;;;;11.53;8.83;;;23.40;60.10;;;;;;5081854;28;20229;-72
2021/07/21 07:12:57;;;;;;;11.33;9.00;;;23.90;60.90;;;;;;5084041;28;20182;-71
2021/07/21 07:15:23;;;;;;;10.97;9.87;;;23.50;58.40;;;;;;5079808;28;20208;-74
2021/07/21 07:17:49;;;;;;;14.83;9.60;;;23.30;58.80;;;;;;5066725;28;20448;-74
2021/07/21 07:20:15;;;;;;;10.57;9.03;;;22.70;61.40;;;;;;5077472;28;20994;-74
2021/07/21 07:22:40;;;;;;;9.73;8.73;;;22.80;63.00;;;;;;5080954;28;20553;-72
2021/07/21 07:25:07;;;;;;;13.00;10.87;;;22.50;64.30;;;;;;5084499;28;20201;-71
2021/07/21 07:27:32;;;;;;;11.23;10.13;;;22.30;64.80;;;;;;5089607;28;20200;-74
2021/07/21 07:29:58;;;;;;;13.00;10.30;;;22.20;67.10;;;;;;5087326;28;20443;-71
2021/07/21 07:32:25;;;;;;;12.87;9.83;;;21.70;67.80;;;;;;5084875;28;20182;-72
2021/07/21 07:34:50;;;;;;;11.07;9.87;;;21.40;68.70;;;;;;5086249;28;20198;-72
2021/07/21 07:37:16;;;;;;;13.57;9.60;;;21.20;68.30;;;;;;5089314;28;20961;-74
2021/07/21 07:39:42;;;;;;;9.00;7.80;;;21.50;69.20;;;;;;5087835;28;20220;-73
2021/07/21 07:42:07;;;;;;;10.27;9.03;;;21.50;69.00;;;;;;5088199;28;20236;-73
2021/07/21 07:44:33;;;;;;;10.60;9.23;;;21.50;69.00;;;;;;5085784;28;20182;-72
2021/07/21 07:46:59;;;;;;;10.80;9.77;;;21.50;69.20;;;;;;5086819;28;20872;-72
2021/07/21 07:49:25;;;;;;;11.53;8.87;;;21.60;70.00;;;;;;5089280;28;20439;-71
2021/07/21 07:51:51;;;;;;;12.07;8.50;;;21.90;68.50;;;;;;5087856;28;20427;-72
2021/07/21 07:54:18;;;;;;;14.90;8.90;;;21.60;69.10;;;;;;5086582;28;20181;-71
2021/07/21 07:56:44;;;;;;;11.77;8.80;;;21.90;68.30;;;;;;5085039;28;20195;-72
2021/07/21 07:59:10;;;;;;;11.00;9.57;;;21.70;67.80;;;;;;5089614;28;20479;-73
2021/07/21 08:01:36;;;;;;;10.90;8.40;;;21.90;68.30;;;;;;5087721;28;20430;-72
2021/07/21 08:04:01;;;;;;;9.33;8.17;;;22.20;66.70;;;;;;5086393;28;20208;-72
2021/07/21 08:06:27;;;;;;;12.73;9.80;;;22.50;66.30;;;;;;5085928;28;20182;-71
2021/07/21 08:08:52;;;;;;;9.70;8.27;;;22.70;65.70;;;;;;5084341;28;20741;-74
2021/07/21 08:11:18;;;;;;;10.03;9.03;;;23.60;64.80;;;;;;5087487;28;20242;-72
2021/07/21 08:13:44;;;;;;;9.13;8.23;;;24.20;60.80;;;;;;5086494;28;20177;-71
2021/07/21 08:16:10;;;;;;;8.17;7.40;;;24.80;58.50;;;;;;5087409;28;20198;-71
2021/07/21 08:18:36;;;;;;;8.37;7.53;;;25.70;56.90;;;;;;5084599;28;20437;-73
2021/07/21 08:21:02;;;;;;;8.47;7.70;;;27.00;54.70;;;;;;5087632;28;20627;-72
2021/07/21 08:23:28;;;;;;;10.53;9.27;;;27.70;51.60;;;;;;5089059;28;20877;-71
2021/07/21 08:25:54;;;;;;;10.23;9.33;;;28.60;48.30;;;;;;5086804;28;20426;-71
2021/07/21 08:28:19;;;;;;;9.60;8.80;;;28.90;45.70;;;;;;5085661;28;20181;-72
2021/07/21 08:30:45;;;;;;;11.20;9.43;;;29.20;46.00;;;;;;5084211;28;20207;-71
2021/07/21 08:33:11;;;;;;;8.77;7.97;;;30.20;44.10;;;;;;5085603;28;20188;-70
2021/07/21 08:35:37;;;;;;;9.73;8.80;;;30.70;42.80;;;;;;5086895;28;20835;-70
2021/07/21 08:38:03;;;;;;;9.83;8.87;;;31.30;41.10;;;;;;5088668;28;20185;-73
2021/07/21 08:40:31;;;;;;;9.80;8.57;;;31.20;39.80;;;;;;5086866;28;20300;-73
2021/07/21 08:42:57;;;;;;;9.63;8.80;;;32.00;39.30;;;;;;5082319;28;20502;-72
2021/07/21 08:45:23;;;;;;;10.30;9.40;;;32.40;38.50;;;;;;5085471;28;20435;-71
2021/07/21 08:47:49;;;;;;;9.17;8.27;;;32.40;36.40;;;;;;5086955;28;20782;-71
2021/07/21 08:50:15;;;;;;;9.97;8.97;;;33.00;36.50;;;;;;5088203;28;20189;-71
2021/07/21 08:52:41;;;;;;;9.10;8.30;;;33.60;35.30;;;;;;5086456;28;20549;-71
2021/07/21 08:55:09;;;;;;;8.97;8.17;;;33.40;35.30;;;;;;5084052;28;20513;-71
2021/07/21 08:57:36;;;;;;;8.97;8.07;;;33.80;35.60;;;;;;5083985;28;20476;-73
2021/07/21 09:00:11;;;;;;;9.20;8.40;;;33.80;34.20;;;;;;5085286;28;20837;-71
2021/07/21 09:02:38;;;;;;;9.40;8.10;;;34.50;34.70;;;;;;5086416;28;20426;-74
2021/07/21 09:05:06;;;;;;;8.57;7.77;;;34.80;32.80;;;;;;5087924;28;20442;-71
2021/07/21 09:07:37;;;;;;;9.40;8.60;;;35.20;32.20;;;;;;5086613;28;20435;-73
2021/07/21 09:10:11;;;;;;;8.97;7.70;;;35.40;30.90;;;;;;5085146;28;20539;-73
2021/07/21 09:12:42;;;;;;;9.23;8.30;;;35.60;31.50;;;;;;5086386;28;20437;-72
2021/07/21 09:15:09;;;;;;;8.50;7.60;;;35.70;29.50;;;;;;5088219;28;20435;-71
2021/07/21 09:17:35;;;;;;;9.57;8.80;;;35.90;30.00;;;;;;5084664;28;20427;-72
2021/07/21 09:20:01;;;;;;;9.80;8.20;;;35.70;29.50;;;;;;5083217;28;20552;-71
2021/07/21 09:22:34;;;;;;;9.50;8.67;;;35.50;30.90;;;;;;5085120;28;20450;-71
2021/07/21 09:25:18;;;;;;;9.13;8.33;;;36.10;29.50;;;;;;5087647;28;20492;-72
2021/07/21 09:27:50;;;;;;;8.90;8.20;;;35.90;29.80;;;;;;5086029;28;20424;-72
2021/07/21 09:30:18;;;;;;;9.40;8.60;;;36.40;29.90;;;;;;5083082;28;21399;-71
2021/07/21 09:33:05;;;;;;;9.90;9.00;;;36.80;28.10;;;;;;5083193;28;20438;-74
2021/07/21 09:35:44;;;;;;;9.20;8.30;;;37.40;28.70;;;;;;5084828;28;20424;-71
2021/07/21 09:38:11;;;;;;;9.23;8.33;;;37.40;27.40;;;;;;5087763;28;20734;-72
2021/07/21 09:40:41;;;;;;;9.57;8.73;;;37.40;28.40;;;;;;5085424;28;21075;-71
2021/07/21 09:43:15;;;;;;;9.47;8.57;;;37.70;28.30;;;;;;5083151;28;20427;-71
2021/07/21 09:45:42;;;;;;;9.53;8.63;;;37.80;27.80;;;;;;5082981;28;20430;-71
2021/07/21 09:48:09;;;;;;;9.30;8.40;;;38.40;27.90;;;;;;5087121;28;20427;-71
2021/07/21 09:50:36;;;;;;;9.30;8.50;;;39.20;27.10;;;;;;5085579;28;20428;-72
2021/07/21 09:53:05;;;;;;;9.27;8.57;;;39.30;26.10;;;;;;5085367;28;20459;-72
2021/07/21 09:55:32;;;;;;;9.10;8.30;;;39.60;26.20;;;;;;5083926;28;20482;-71
2021/07/21 09:58:08;;;;;;;9.83;8.93;;;39.60;26.30;;;;;;5087130;28;20438;-71
2021/07/21 10:00:38;;;;;;;9.63;8.70;;;40.00;25.50;;;;;;5085395;28;20466;-72
2021/07/21 10:03:07;;;;;;;9.50;8.70;;;40.60;25.20;;;;;;5082299;28;20466;-71
2021/07/21 10:05:33;;;;;;;9.57;8.73;;;41.10;24.20;;;;;;5082299;28;20455;-73
2021/07/21 10:08:02;;;;;;;9.10;8.30;;;40.90;24.40;;;;;;5086518;28;20531;-75
2021/07/21 10:10:30;;;;;;;9.77;8.73;;;40.60;23.50;;;;;;5086743;28;20237;-71
2021/07/21 10:13:05;;;;;;;8.97;8.07;;;40.50;24.10;;;;;;5083711;28;20547;-74
2021/07/21 10:15:32;;;;;;;9.80;8.80;;;39.80;24.10;;;;;;5084025;28;20427;-71
2021/07/21 10:18:12;;;;;;;10.10;9.20;;;40.00;24.50;;;;;;5081932;28;20449;-71
2021/07/21 10:20:39;;;;;;;9.07;8.00;;;38.90;24.60;;;;;;5085083;28;20482;-71
2021/07/21 10:23:07;;;;;;;9.73;8.80;;;39.20;25.80;;;;;;5086579;28;20447;-71
2021/07/21 10:25:34;;;;;;;9.50;8.60;;;39.40;25.30;;;;;;5083766;28;20469;-74
2021/07/21 10:28:00;;;;;;;10.17;9.20;;;40.10;25.20;;;;;;5082915;28;20819;-71
2021/07/21 10:30:28;;;;;;;10.07;9.03;;;39.00;25.20;;;;;;5081705;28;20819;-70
2021/07/21 10:32:58;;;;;;;9.20;8.30;;;38.90;25.90;;;;;;5086465;28;20438;-71
2021/07/21 10:35:25;;;;;;;9.53;8.57;;;39.60;25.80;;;;;;5086699;28;20435;-71
2021/07/21 10:37:52;;;;;;;9.37;8.67;;;40.30;25.30;;;;;;5086053;28;20488;-74
2021/07/21 10:40:22;;;;;;;9.57;8.73;;;40.90;24.00;;;;;;5088634;28;20490;-71
2021/07/21 10:42:53;;;;;;;10.50;9.50;;;40.60;24.30;;;;;;5091732;28;20435;-71
2021/07/21 10:45:20;;;;;;;10.03;9.03;;;40.60;25.60;;;;;;5093398;28;20427;-73
2021/07/21 10:47:47;;;;;;;10.03;9.20;;;41.40;24.30;;;;;;5090280;28;20441;-71
2021/07/21 10:51:00;;;;;;;10.53;9.53;;;41.70;23.90;;;;;;5089392;28;20429;-73
2021/07/21 10:53:31;;;;;;;9.10;8.40;;;42.40;23.60;;;;;;5088205;28;20454;-71
2021/07/21 10:59:20;;;;;;;9.07;8.27;;;43.80;21.70;;;;;;5092936;28;20481;-71
2021/07/21 11:01:49;;;;;;;10.10;9.20;;;44.20;21.50;;;;;;5089986;28;20430;-71
2021/07/21 11:04:15;;;;;;;9.97;9.07;;;44.10;22.00;;;;;;5089848;28;20427;-73
2021/07/21 11:06:44;;;;;;;10.17;9.23;;;44.40;21.80;;;;;;5091451;28;20542;-71
2021/07/21 11:09:32;;;;;;;9.20;8.40;;;44.80;21.30;;;;;;5093275;28;20431;-71
2021/07/21 11:11:58;;;;;;;11.57;10.43;;;45.10;20.60;;;;;;5088136;28;20442;-74
2021/07/21 11:14:34;;;;;;;10.93;9.93;;;44.50;20.30;;;;;;5088463;28;20521;-72
2021/07/21 11:17:06;;;;;;;9.50;8.70;;;43.90;21.20;;;;;;5092706;28;20560;-72
2021/07/21 11:19:39;;;;;;;10.53;9.43;;;44.40;21.00;;;;;;5093001;28;20504;-71
2021/07/21 11:22:09;;;;;;;10.17;9.17;;;44.70;21.30;;;;;;5089672;28;20431;-73
2021/07/21 11:25:00;;;;;;;9.90;9.00;;;45.10;20.30;;;;;;5088637;28;20964;-71
2021/07/21 11:27:38;;;;;;;9.53;8.73;;;45.40;20.70;;;;;;5089985;28;20435;-74
2021/07/21 11:30:24;;;;;;;10.70;9.70;;;45.50;20.40;;;;;;5089970;28;20778;-72
2021/07/21 11:32:50;;;;;;;10.60;9.60;;;45.10;19.90;;;;;;5091933;28;20525;-72
2021/07/21 11:35:45;;;;;;;10.60;9.70;;;44.50;19.90;;;;;;5092486;28;20509;-70
2021/07/21 11:38:18;;;;;;;10.70;9.80;;;43.40;21.00;;;;;;5083059;28;20196;-70
2021/07/21 11:40:45;;;;;;;10.03;9.03;;;43.50;21.90;;;;;;5089911;28;20477;-71
2021/07/21 11:43:35;;;;;;;11.47;10.37;;;44.10;22.00;;;;;;5092649;28;20415;-71
2021/07/21 11:46:06;;;;;;;10.90;10.00;;;44.30;20.70;;;;;;5092832;28;20513;-70
2021/07/21 11:48:32;;;;;;;11.73;10.63;;;42.70;20.90;;;;;;5088953;28;20446;-71
2021/07/21 11:50:58;;;;;;;10.80;9.83;;;42.70;21.70;;;;;;5085211;28;20515;-70
2021/07/21 11:53:24;;;;;;;11.03;10.03;;;42.10;23.10;;;;;;5089996;28;20435;-71
2021/07/21 11:55:50;;;;;;;11.03;10.00;;;42.90;23.20;;;;;;5087980;28;20427;-71
2021/07/21 11:58:16;;;;;;;11.67;10.20;;;43.70;22.30;;;;;;5087983;28;20246;-71
2021/07/21 12:00:48;;;;;;;9.93;9.20;;;44.60;21.00;;;;;;5084849;28;20228;-70
2021/07/21 12:03:14;;;;;;;10.37;9.47;;;44.80;20.10;;;;;;5084687;28;20525;-71
2021/07/21 12:05:51;;;;;;;10.90;10.00;;;44.30;21.20;;;;;;5087816;28;20431;-70
2021/07/21 12:08:18;;;;;;;10.73;9.73;;;43.40;21.10;;;;;;5089144;28;20189;-70
2021/07/21 12:10:44;;;;;;;10.43;9.57;;;43.40;21.90;;;;;;5087852;28;20482;-71
2021/07/21 12:13:10;;;;;;;9.77;8.97;;;44.10;20.70;;;;;;5084530;28;20435;-70
2021/07/21 12:15:37;;;;;;;9.20;8.50;;;44.30;21.00;;;;;;5084803;28;20189;-71
2021/07/21 12:18:13;;;;;;;10.57;9.67;;;43.00;21.60;;;;;;5085800;28;20473;-70
2021/07/21 12:20:44;;;;;;;10.60;9.67;;;42.30;22.00;;;;;;5087191;28;20486;-71
2021/07/21 12:23:10;;;;;;;10.23;9.30;;;41.60;23.80;;;;;;5088898;28;20510;-72
2021/07/21 12:25:35;;;;;;;11.10;10.07;;;42.10;23.60;;;;;;5085872;28;20431;-72
2021/07/21 12:28:01;;;;;;;10.87;9.77;;;42.60;23.30;;;;;;5084309;28;20530;-71
2021/07/21 12:30:31;;;;;;;10.70;9.70;;;43.00;21.90;;;;;;5086038;28;20440;-71
2021/07/21 12:32:57;;;;;;;10.77;9.77;;;43.60;21.60;;;;;;5083951;28;20276;-71
2021/07/21 12:35:25;;;;;;;11.67;10.57;;;44.20;21.90;;;;;;5087434;28;20506;-70
2021/07/21 12:37:52;;;;;;;11.27;10.27;;;43.80;20.90;;;;;;5086773;28;20519;-72
2021/07/21 12:40:20;;;;;;;10.77;9.97;;;43.60;21.50;;;;;;5087299;28;20482;-71
2021/07/21 12:42:47;;;;;;;11.93;10.80;;;43.30;21.30;;;;;;5084590;28;20442;-71
2021/07/21 12:45:15;;;;;;;10.80;9.70;;;44.10;22.10;;;;;;5084042;28;20481;-71
2021/07/21 12:47:44;;;;;;;10.13;9.23;;;44.10;20.90;;;;;;5087390;28;20426;-73
2021/07/21 12:50:13;;;;;;;9.63;8.83;;;43.90;21.70;;;;;;5088407;28;20492;-70
2021/07/21 12:53:11;;;;;;;10.70;9.67;;;43.20;21.40;;;;;;5086817;28;20982;-71
2021/07/21 12:55:42;;;;;;;10.70;9.50;;;43.90;22.50;;;;;;5083727;28;20484;-71